createdAt,value
2018-06-19T00:00:21.739Z,989.37
2018-06-19T00:01:21.706Z,989.32
2018-06-19T00:02:21.677Z,989.33
2018-06-19T00:03:21.635Z,989.35
2018-06-19T00:04:21.604Z,989.33
2018-06-19T00:05:21.577Z,989.32
2018-06-19T00:06:21.544Z,989.35
2018-06-19T00:07:21.519Z,989.37
2018-06-19T00:08:21.476Z,989.40
2018-06-19T00:09:21.442Z,989.39
2018-06-19T00:10:21.414Z,989.36
2018-06-19T00:11:21.394Z,989.36
2018-06-19T00:12:21.343Z,989.32
2018-06-19T00:13:21.309Z,989.35
2018-06-19T00:14:21.286Z,989.34
2018-06-19T00:15:21.259Z,989.34
2018-06-19T00:16:21.220Z,989.31
2018-06-19T00:17:21.183Z,989.32
2018-06-19T00:18:21.146Z,989.29
2018-06-19T00:19:21.125Z,989.34
2018-06-19T00:20:21.083Z,989.32
2018-06-19T00:21:21.060Z,989.28
2018-06-19T00:22:21.018Z,989.25
2018-06-19T00:23:20.989Z,989.21
2018-06-19T00:24:20.951Z,989.22
2018-06-19T00:25:20.927Z,989.19
2018-06-19T00:26:20.882Z,989.20
2018-06-19T00:27:20.855Z,989.23
2018-06-19T00:28:20.831Z,989.22
2018-06-19T00:29:20.789Z,989.18
2018-06-19T00:30:20.760Z,989.14
2018-06-19T00:31:20.717Z,989.13
2018-06-19T00:32:20.704Z,989.19
2018-06-19T00:33:20.653Z,989.16
2018-06-19T00:34:20.628Z,989.15
2018-06-19T00:35:20.588Z,989.18
2018-06-19T00:36:20.554Z,989.13
2018-06-19T00:37:20.525Z,989.17
2018-06-19T00:38:20.491Z,989.18
2018-06-19T00:39:20.460Z,989.21
2018-06-19T00:40:20.424Z,989.23
2018-06-19T00:41:20.390Z,989.23
2018-06-19T00:42:20.365Z,989.20
2018-06-19T00:43:20.322Z,989.19
2018-06-19T00:44:20.291Z,989.17
2018-06-19T00:45:20.261Z,989.11
2018-06-19T00:46:20.228Z,989.10
2018-06-19T00:47:20.195Z,989.08
2018-06-19T00:48:20.158Z,989.12
2018-06-19T00:49:20.136Z,989.08
2018-06-19T00:50:20.088Z,989.12
2018-06-19T00:51:20.061Z,989.09
2018-06-19T00:52:20.031Z,989.11
2018-06-19T00:53:19.993Z,989.11
2018-06-19T00:54:19.974Z,989.10
2018-06-19T00:55:19.924Z,989.06
2018-06-19T00:56:19.889Z,989.10
2018-06-19T00:57:19.857Z,989.09
2018-06-19T00:58:19.820Z,989.16
2018-06-19T00:59:19.805Z,989.10
2018-06-19T01:00:19.758Z,989.13
2018-06-19T01:01:19.727Z,989.12
2018-06-19T01:02:19.694Z,989.11
2018-06-19T01:03:19.655Z,989.12
2018-06-19T01:04:19.623Z,989.05
2018-06-19T01:05:19.591Z,989.02
2018-06-19T01:06:19.563Z,989.06
2018-06-19T01:07:19.546Z,988.99
2018-06-19T01:08:19.493Z,989.02
2018-06-19T01:09:19.466Z,988.96
2018-06-19T01:10:19.421Z,988.96
2018-06-19T01:11:19.397Z,989.00
2018-06-19T01:12:19.358Z,989.04
2018-06-19T01:13:19.334Z,989.04
2018-06-19T01:14:19.299Z,988.99
2018-06-19T01:15:19.280Z,989.01
2018-06-19T01:16:19.229Z,989.03
2018-06-19T01:17:19.189Z,989.09
2018-06-19T01:18:19.158Z,989.06
2018-06-19T01:19:19.132Z,989.04
2018-06-19T01:20:19.090Z,989.07
2018-06-19T01:21:19.056Z,989.01
2018-06-19T01:22:19.023Z,989.08
2018-06-19T01:23:18.994Z,989.09
2018-06-19T01:24:18.956Z,989.09
2018-06-19T01:25:18.926Z,989.10
2018-06-19T01:26:18.894Z,989.09
2018-06-19T01:27:18.850Z,989.13
2018-06-19T01:28:18.819Z,989.15
2018-06-19T01:29:18.790Z,989.18
2018-06-19T01:30:18.763Z,989.19
2018-06-19T01:31:18.732Z,989.17
2018-06-19T01:32:18.694Z,989.16
2018-06-19T01:33:18.654Z,989.15
2018-06-19T01:34:18.624Z,989.16
2018-06-19T01:35:18.580Z,989.15
2018-06-19T01:36:18.548Z,989.18
2018-06-19T01:37:18.524Z,989.14
2018-06-19T01:38:18.590Z,989.16
2018-06-19T01:39:18.452Z,989.16
2018-06-19T01:40:18.414Z,989.15
2018-06-19T01:41:18.381Z,989.15
2018-06-19T01:42:18.346Z,989.14
2018-06-19T01:43:18.317Z,989.14
2018-06-19T01:44:18.290Z,989.16
2018-06-19T01:45:18.248Z,989.15
2018-06-19T01:46:18.227Z,989.15
2018-06-19T01:47:18.182Z,989.13
2018-06-19T01:48:18.150Z,989.15
2018-06-19T01:49:18.114Z,989.11
2018-06-19T01:50:18.078Z,989.08
2018-06-19T01:51:18.050Z,989.10
2018-06-19T01:52:18.013Z,989.10
2018-06-19T01:53:17.979Z,989.13
2018-06-19T01:54:17.945Z,989.14
2018-06-19T01:55:17.911Z,989.16
2018-06-19T01:56:17.877Z,989.13
2018-06-19T01:57:17.843Z,989.17
2018-06-19T01:58:17.825Z,989.16
2018-06-19T01:59:17.774Z,989.21
2018-06-19T02:00:17.753Z,989.24
2018-06-19T02:01:17.715Z,989.22
2018-06-19T02:02:17.669Z,989.22
2018-06-19T02:03:17.650Z,989.22
2018-06-19T02:04:17.608Z,989.26
2018-06-19T02:05:17.573Z,989.26
2018-06-19T02:06:17.549Z,989.28
2018-06-19T02:07:17.504Z,989.25
2018-06-19T02:08:17.474Z,989.22
2018-06-19T02:09:17.442Z,989.23
2018-06-19T02:10:17.423Z,989.21
2018-06-19T02:11:17.368Z,989.21
2018-06-19T02:12:17.344Z,989.21
2018-06-19T02:13:17.304Z,989.21
2018-06-19T02:14:17.266Z,989.13
2018-06-19T02:15:17.243Z,989.14
2018-06-19T02:16:17.202Z,989.12
2018-06-19T02:17:17.180Z,989.15
2018-06-19T02:18:17.141Z,989.13
2018-06-19T02:19:17.098Z,989.15
2018-06-19T02:20:17.061Z,989.20
2018-06-19T02:21:17.030Z,989.17
2018-06-19T02:22:16.994Z,989.16
2018-06-19T02:23:16.975Z,989.21
2018-06-19T02:24:16.931Z,989.21
2018-06-19T02:25:16.895Z,989.22
2018-06-19T02:26:16.863Z,989.23
2018-06-19T02:27:16.839Z,989.19
2018-06-19T02:28:16.798Z,989.19
2018-06-19T02:29:16.767Z,989.22
2018-06-19T02:30:16.734Z,989.23
2018-06-19T02:31:16.689Z,989.23
2018-06-19T02:32:16.663Z,989.24
2018-06-19T02:33:16.624Z,989.24
2018-06-19T02:34:16.591Z,989.24
2018-06-19T02:35:16.560Z,989.26
2018-06-19T02:36:16.527Z,989.26
2018-06-19T02:37:16.490Z,989.28
2018-06-19T02:38:16.456Z,989.30
2018-06-19T02:39:16.416Z,989.31
2018-06-19T02:40:16.384Z,989.29
2018-06-19T02:41:16.352Z,989.30
2018-06-19T02:42:16.330Z,989.31
2018-06-19T02:43:16.283Z,989.28
2018-06-19T02:44:16.262Z,989.26
2018-06-19T02:45:16.217Z,989.32
2018-06-19T02:46:16.182Z,989.36
2018-06-19T02:47:16.158Z,989.38
2018-06-19T02:48:16.119Z,989.38
2018-06-19T02:49:16.082Z,989.36
2018-06-19T02:50:16.053Z,989.40
2018-06-19T02:51:16.010Z,989.32
2018-06-19T02:52:16.001Z,989.30
2018-06-19T02:53:15.949Z,989.29
2018-06-19T02:54:15.909Z,989.31
2018-06-19T02:55:15.893Z,989.29
2018-06-19T02:56:15.846Z,989.33
2018-06-19T02:57:15.809Z,989.37
2018-06-19T02:58:15.774Z,989.35
2018-06-19T02:59:15.746Z,989.31
2018-06-19T03:00:15.805Z,989.31
2018-06-19T03:01:15.727Z,989.35
2018-06-19T03:02:15.691Z,989.31
2018-06-19T03:03:15.604Z,989.32
2018-06-19T03:04:15.622Z,989.29
2018-06-19T03:05:15.538Z,989.32
2018-06-19T03:06:15.548Z,989.38
2018-06-19T03:07:15.469Z,989.39
2018-06-19T03:08:15.440Z,989.41
2018-06-19T03:09:15.408Z,989.42
2018-06-19T03:10:15.371Z,989.39
2018-06-19T03:11:15.336Z,989.39
2018-06-19T03:12:15.296Z,989.38
2018-06-19T03:13:15.270Z,989.40
2018-06-19T03:14:15.232Z,989.40
2018-06-19T03:15:15.201Z,989.39
2018-06-19T03:16:15.163Z,989.42
2018-06-19T03:17:15.129Z,989.43
2018-06-19T03:18:15.119Z,989.45
2018-06-19T03:19:15.080Z,989.49
2018-06-19T03:20:15.041Z,989.45
2018-06-19T03:21:14.996Z,989.46
2018-06-19T03:22:14.969Z,989.48
2018-06-19T03:23:14.928Z,989.51
2018-06-19T03:24:14.887Z,989.50
2018-06-19T03:25:14.858Z,989.55
2018-06-19T03:26:14.826Z,989.54
2018-06-19T03:27:14.791Z,989.53
2018-06-19T03:28:14.759Z,989.57
2018-06-19T03:29:14.722Z,989.60
2018-06-19T03:30:14.743Z,989.56
2018-06-19T03:31:14.655Z,989.60
2018-06-19T03:32:14.621Z,989.59
2018-06-19T03:33:14.595Z,989.61
2018-06-19T03:34:14.552Z,989.63
2018-06-19T03:35:14.518Z,989.66
2018-06-19T03:36:14.483Z,989.68
2018-06-19T03:37:14.444Z,989.72
2018-06-19T03:38:14.417Z,989.72
2018-06-19T03:39:14.384Z,989.69
2018-06-19T03:40:14.350Z,989.70
2018-06-19T03:41:14.315Z,989.68
2018-06-19T03:42:14.298Z,989.70
2018-06-19T03:43:14.263Z,989.72
2018-06-19T03:44:14.207Z,989.74
2018-06-19T03:45:14.185Z,989.74
2018-06-19T03:46:14.142Z,989.73
2018-06-19T03:47:14.110Z,989.80
2018-06-19T03:48:14.100Z,989.79
2018-06-19T03:49:14.040Z,989.79
2018-06-19T03:50:14.008Z,989.81
2018-06-19T03:51:13.973Z,989.83
2018-06-19T04:07:06.132Z,989.94
2018-06-19T04:08:06.061Z,989.92
2018-06-19T04:09:06.022Z,989.92
2018-06-19T04:10:05.979Z,989.91
2018-06-19T04:11:05.950Z,989.92
2018-06-19T04:12:05.909Z,989.90
2018-06-19T04:13:05.878Z,989.86
2018-06-19T04:14:05.834Z,989.87
2018-06-19T04:15:05.799Z,989.87
2018-06-19T04:16:05.755Z,989.87
2018-06-19T04:17:05.750Z,989.90
2018-06-19T04:18:05.693Z,989.90
2018-06-19T04:19:05.657Z,989.90
2018-06-19T04:20:05.620Z,989.87
2018-06-19T04:21:05.588Z,989.88
2018-06-19T04:22:05.571Z,989.91
2018-06-19T04:23:05.519Z,989.92
2018-06-19T04:24:05.477Z,989.93
2018-06-19T04:25:05.448Z,989.97
2018-06-19T04:26:05.410Z,989.95
2018-06-19T04:27:05.376Z,989.95
2018-06-19T04:28:05.350Z,989.97
2018-06-19T04:29:05.305Z,989.97
2018-06-19T04:30:05.271Z,989.97
2018-06-19T04:31:05.244Z,989.97
2018-06-19T04:32:05.212Z,989.93
2018-06-19T04:33:05.167Z,989.95
2018-06-19T04:34:05.134Z,989.96
2018-06-19T04:35:05.100Z,989.97
2018-06-19T04:36:05.073Z,989.97
2018-06-19T04:37:05.048Z,989.99
2018-06-19T04:38:05.001Z,989.95
2018-06-19T04:39:04.969Z,989.97
2018-06-19T04:40:04.940Z,990.03
2018-06-19T04:41:04.892Z,990.10
2018-06-19T04:42:04.890Z,990.12
2018-06-19T04:43:04.834Z,990.13
2018-06-19T04:44:04.789Z,990.10
2018-06-19T04:45:04.766Z,990.12
2018-06-19T04:46:04.747Z,990.15
2018-06-19T04:47:04.694Z,990.15
2018-06-19T04:48:04.656Z,990.21
2018-06-19T04:49:04.626Z,990.20
2018-06-19T04:50:04.594Z,990.23
2018-06-19T04:51:04.556Z,990.25
2018-06-19T04:52:04.523Z,990.30
2018-06-19T04:53:04.483Z,990.25
2018-06-19T04:54:04.455Z,990.25
2018-06-19T04:55:04.420Z,990.22
2018-06-19T04:56:04.382Z,990.20
2018-06-19T04:57:04.366Z,990.25
2018-06-19T04:58:04.321Z,990.26
2018-06-19T04:59:04.288Z,990.25
2018-06-19T05:00:04.267Z,990.22
2018-06-19T05:01:04.249Z,990.25
2018-06-19T05:02:04.188Z,990.25
2018-06-19T05:03:04.162Z,990.23
2018-06-19T05:04:04.126Z,990.29
2018-06-19T05:05:04.084Z,990.27
2018-06-19T05:06:04.049Z,990.25
2018-06-19T05:07:04.024Z,990.29
2018-06-19T05:08:03.980Z,990.24
2018-06-19T05:09:03.949Z,990.28
2018-06-19T05:10:03.922Z,990.24
2018-06-19T05:11:03.892Z,990.28
2018-06-19T05:12:03.852Z,990.26
2018-06-19T05:13:03.833Z,990.30
2018-06-19T05:14:03.778Z,990.32
2018-06-19T05:15:03.765Z,990.27
2018-06-19T05:16:03.708Z,990.31
2018-06-19T05:17:03.683Z,990.28
2018-06-19T05:18:03.651Z,990.26
2018-06-19T05:19:03.609Z,990.21
2018-06-19T05:20:03.583Z,990.19
2018-06-19T05:21:03.548Z,990.30
2018-06-19T05:22:03.516Z,990.28
2018-06-19T05:23:03.478Z,990.33
2018-06-19T05:24:03.452Z,990.33
2018-06-19T05:25:03.405Z,990.32
2018-06-19T05:26:03.381Z,990.36
2018-06-19T05:27:03.344Z,990.38
2018-06-19T05:28:03.313Z,990.37
2018-06-19T05:29:03.281Z,990.38
2018-06-19T05:30:03.250Z,990.44
2018-06-19T05:31:03.210Z,990.39
2018-06-19T05:32:03.179Z,990.39
2018-06-19T05:33:03.138Z,990.38
2018-06-19T05:34:03.120Z,990.33
2018-06-19T05:35:03.151Z,990.33
2018-06-19T05:36:03.054Z,990.35
2018-06-19T05:37:03.004Z,990.36
2018-06-19T05:38:02.980Z,990.39
2018-06-19T05:39:02.944Z,990.42
2018-06-19T05:40:02.903Z,990.40
2018-06-19T05:41:02.891Z,990.40
2018-06-19T05:42:02.838Z,990.39
2018-06-19T05:43:02.807Z,990.40
2018-06-19T05:44:02.780Z,990.38
2018-06-19T05:45:02.738Z,990.39
2018-06-19T05:46:02.702Z,990.44
2018-06-19T05:47:02.668Z,990.40
2018-06-19T05:48:02.640Z,990.43
2018-06-19T05:49:02.624Z,990.45
2018-06-19T05:50:02.573Z,990.44
2018-06-19T05:51:02.542Z,990.45
2018-06-19T05:52:02.503Z,990.43
2018-06-19T05:53:02.475Z,990.45
2018-06-19T05:54:02.442Z,990.42
2018-06-19T05:55:02.414Z,990.42
2018-06-19T05:56:02.374Z,990.39
2018-06-19T05:57:02.334Z,990.42
2018-06-19T05:58:02.306Z,990.37
2018-06-19T05:59:02.268Z,990.36
2018-06-19T06:00:02.237Z,990.34
2018-06-19T06:01:02.211Z,990.36
2018-06-19T06:02:02.172Z,990.34
2018-06-19T06:03:02.138Z,990.31
2018-06-19T06:04:02.111Z,990.32
2018-06-19T06:05:02.066Z,990.36
2018-06-19T06:06:02.034Z,990.35
2018-06-19T06:07:02.004Z,990.35
2018-06-19T06:08:01.978Z,990.34
2018-06-19T06:09:01.930Z,990.32
2018-06-19T06:10:01.904Z,990.33
2018-06-19T06:11:01.870Z,990.39
2018-06-19T06:12:01.832Z,990.43
2018-06-19T06:13:01.804Z,990.43
2018-06-19T06:14:01.772Z,990.48
2018-06-19T06:15:01.741Z,990.46
2018-06-19T06:16:01.729Z,990.52
2018-06-19T06:17:01.669Z,990.57
2018-06-19T06:18:01.634Z,990.53
2018-06-19T06:19:01.601Z,990.56
2018-06-19T06:20:01.569Z,990.59
2018-06-19T06:21:01.544Z,990.63
2018-06-19T06:22:01.536Z,990.62
2018-06-19T06:23:01.471Z,990.62
2018-06-19T06:24:01.443Z,990.64
2018-06-19T06:25:01.411Z,990.62
2018-06-19T06:26:01.379Z,990.62
2018-06-19T06:27:01.343Z,990.67
2018-06-19T06:28:01.306Z,990.62
2018-06-19T06:29:01.278Z,990.62
2018-06-19T06:30:01.239Z,990.59
2018-06-19T06:31:01.202Z,990.64
2018-06-19T06:32:01.175Z,990.64
2018-06-19T06:33:01.140Z,990.56
2018-06-19T06:34:01.110Z,990.64
2018-06-19T06:35:01.076Z,990.62
2018-06-19T06:36:01.046Z,990.63
2018-06-19T06:37:01.032Z,990.58
2018-06-19T06:38:00.973Z,990.58
2018-06-19T06:39:00.953Z,990.61
2018-06-19T06:40:00.911Z,990.59
2018-06-19T06:41:00.886Z,990.57
2018-06-19T06:42:00.840Z,990.57
2018-06-19T06:43:00.809Z,990.56
2018-06-19T06:44:00.776Z,990.58
2018-06-19T06:45:00.755Z,990.53
2018-06-19T06:46:00.727Z,990.54
2018-06-19T06:47:00.688Z,990.58
2018-06-19T06:48:00.654Z,990.56
2018-06-19T06:49:00.612Z,990.59
2018-06-19T06:50:00.578Z,990.51
2018-06-19T06:51:00.552Z,990.56
2018-06-19T06:52:00.541Z,990.54
2018-06-19T06:53:00.485Z,990.57
2018-06-19T06:54:00.458Z,990.53
2018-06-19T06:55:00.417Z,990.59
2018-06-19T06:56:00.384Z,990.59
2018-06-19T06:57:00.357Z,990.56
2018-06-19T06:58:00.330Z,990.60
2018-06-19T06:59:00.292Z,990.57
2018-06-19T07:00:00.259Z,990.54
2018-06-19T07:01:00.225Z,990.56
2018-06-19T07:02:00.186Z,990.53
2018-06-19T07:03:00.155Z,990.50
2018-06-19T07:04:00.132Z,990.51
2018-06-19T07:05:00.099Z,990.53
2018-06-19T07:06:00.061Z,990.57
2018-06-19T07:07:00.031Z,990.62
2018-06-19T07:07:59.995Z,990.61
2018-06-19T07:08:59.973Z,990.58
2018-06-19T07:09:59.995Z,990.59
2018-06-19T07:10:59.907Z,990.59
2018-06-19T07:11:59.891Z,990.59
2018-06-19T07:12:59.840Z,990.65
2018-06-19T07:13:59.799Z,990.61
2018-06-19T07:14:59.770Z,990.63
2018-06-19T07:15:59.790Z,990.64
2018-06-19T07:16:59.705Z,990.68
2018-06-19T07:17:59.682Z,990.67
2018-06-19T07:18:59.693Z,990.71
2018-06-19T07:19:59.612Z,990.69
2018-06-19T07:20:59.574Z,990.73
2018-06-19T07:21:59.548Z,990.73
2018-06-19T07:22:59.507Z,990.71
2018-06-19T07:23:59.475Z,990.75
2018-06-19T07:24:59.445Z,990.73
2018-06-19T07:25:59.443Z,990.73
2018-06-19T07:26:59.378Z,990.78
2018-06-19T07:27:59.345Z,990.75
2018-06-19T07:28:59.325Z,990.78
2018-06-19T07:29:59.287Z,990.76
2018-06-19T07:30:59.261Z,990.78
2018-06-19T07:31:59.225Z,990.81
2018-06-19T07:32:59.192Z,990.80
2018-06-19T07:33:59.153Z,990.81
2018-06-19T07:34:59.126Z,990.79
2018-06-19T07:35:59.094Z,990.80
2018-06-19T07:36:59.060Z,990.82
2018-06-19T07:37:59.107Z,990.77
2018-06-19T07:38:58.996Z,990.83
2018-06-19T07:39:58.974Z,990.81
2018-06-19T07:40:58.932Z,990.87
2018-06-19T07:41:58.897Z,990.83
2018-06-19T07:42:58.871Z,990.84
2018-06-19T07:43:58.889Z,990.90
2018-06-19T07:44:58.802Z,990.87
2018-06-19T07:45:58.782Z,990.95
2018-06-19T07:46:58.740Z,990.93
2018-06-19T07:47:58.705Z,990.93
2018-06-19T07:48:58.676Z,990.95
2018-06-19T07:49:58.649Z,990.92
2018-06-19T07:50:58.616Z,990.94
2018-06-19T07:51:58.579Z,990.94
2018-06-19T07:52:58.546Z,990.94
2018-06-19T07:53:58.521Z,990.97
2018-06-19T07:54:58.484Z,990.95
2018-06-19T07:55:58.460Z,991.01
2018-06-19T07:56:58.421Z,991.03
2018-06-19T07:57:58.404Z,991.02
2018-06-19T07:58:58.354Z,991.04
2018-06-19T07:59:58.323Z,991.02
2018-06-19T08:00:58.293Z,991.02
2018-06-19T08:01:58.269Z,991.02
2018-06-19T08:02:58.239Z,991.04
2018-06-19T08:03:58.196Z,991.03
2018-06-19T08:04:58.168Z,991.05
2018-06-19T08:05:58.130Z,991.08
2018-06-19T08:06:58.102Z,991.07
2018-06-19T08:07:58.068Z,991.08
2018-06-19T08:08:58.052Z,991.04
2018-06-19T08:09:58.022Z,991.10
2018-06-19T08:10:57.978Z,991.11
2018-06-19T08:11:57.946Z,991.09
2018-06-19T08:12:57.915Z,991.12
2018-06-19T08:13:57.876Z,991.13
2018-06-19T08:14:57.855Z,991.12
2018-06-19T08:15:57.820Z,991.14
2018-06-19T08:16:57.783Z,991.13
2018-06-19T08:17:57.750Z,991.16
2018-06-19T08:18:57.719Z,991.13
2018-06-19T08:19:57.688Z,991.17
2018-06-19T08:20:57.660Z,991.15
2018-06-19T08:21:57.629Z,991.13
2018-06-19T08:22:57.605Z,991.13
2018-06-19T08:23:57.566Z,991.19
2018-06-19T08:24:57.531Z,991.21
2018-06-19T08:25:57.498Z,991.20
2018-06-19T08:26:57.465Z,991.21
2018-06-19T08:27:57.441Z,991.22
2018-06-19T08:28:57.414Z,991.19
2018-06-19T08:29:57.380Z,991.23
2018-06-19T08:30:57.361Z,991.17
2018-06-19T08:31:57.313Z,991.19
2018-06-19T08:32:57.314Z,991.17
2018-06-19T08:33:57.256Z,991.20
2018-06-19T08:34:57.223Z,991.20
2018-06-19T08:35:57.186Z,991.19
2018-06-19T08:36:57.157Z,991.21
2018-06-19T08:37:57.119Z,991.17
2018-06-19T08:38:57.115Z,991.17
2018-06-19T08:39:57.084Z,991.15
2018-06-19T08:40:57.030Z,991.16
2018-06-19T08:41:57.027Z,991.21
2018-06-19T08:42:56.968Z,991.19
2018-06-19T08:43:56.941Z,991.23
2018-06-19T08:44:56.903Z,991.26
2018-06-19T08:45:56.872Z,991.24
2018-06-19T08:46:56.847Z,991.20
2018-06-19T08:47:56.818Z,991.24
2018-06-19T08:48:56.777Z,991.22
2018-06-19T08:49:56.743Z,991.22
2018-06-19T08:50:56.713Z,991.27
2018-06-19T08:51:56.683Z,991.28
2018-06-19T08:52:56.654Z,991.25
2018-06-19T08:53:56.626Z,991.27
2018-06-19T08:54:56.598Z,991.30
2018-06-19T08:55:56.562Z,991.27
2018-06-19T08:56:56.525Z,991.28
2018-06-19T08:57:56.493Z,991.32
2018-06-19T08:58:56.460Z,991.34
2018-06-19T08:59:56.443Z,991.32
2018-06-19T09:00:56.405Z,991.34
2018-06-19T09:01:56.383Z,991.36
2018-06-19T09:02:56.340Z,991.36
2018-06-19T09:03:56.308Z,991.36
2018-06-19T09:04:56.280Z,991.38
2018-06-19T09:05:56.260Z,991.38
2018-06-19T09:06:56.242Z,991.36
2018-06-19T09:07:56.185Z,991.41
2018-06-19T09:08:56.156Z,991.41
2018-06-19T09:09:56.119Z,991.42
2018-06-19T09:10:56.098Z,991.48
2018-06-19T09:11:56.058Z,991.48
2018-06-19T09:12:56.030Z,991.47
2018-06-19T09:13:56.014Z,991.47
2018-06-19T09:14:55.976Z,991.47
2018-06-19T09:15:55.939Z,991.50
2018-06-19T09:16:55.905Z,991.45
2018-06-19T09:17:55.870Z,991.46
2018-06-19T09:18:55.871Z,991.47
2018-06-19T09:19:55.810Z,991.49
2018-06-19T09:20:55.782Z,991.47
2018-06-19T09:21:55.744Z,991.48
2018-06-19T09:22:55.715Z,991.50
2018-06-19T09:23:55.687Z,991.54
2018-06-19T09:24:55.661Z,991.53
2018-06-19T09:25:55.646Z,991.55
2018-06-19T09:26:55.597Z,991.55
2018-06-19T09:27:55.563Z,991.53
2018-06-19T09:28:55.530Z,991.54
2018-06-19T09:29:55.497Z,991.51
2018-06-19T09:30:55.471Z,991.54
2018-06-19T09:31:55.436Z,991.54
2018-06-19T09:32:55.415Z,991.49
2018-06-19T09:33:55.378Z,991.50
2018-06-19T09:34:55.346Z,991.52
2018-06-19T09:35:55.311Z,991.56
2018-06-19T09:36:55.288Z,991.55
2018-06-19T09:37:55.250Z,991.56
2018-06-19T09:38:55.226Z,991.63
2018-06-19T09:39:55.193Z,991.64
2018-06-19T09:40:55.155Z,991.62
2018-06-19T09:41:55.126Z,991.58
2018-06-19T09:42:55.088Z,991.62
2018-06-19T09:43:55.059Z,991.61
2018-06-19T09:44:55.036Z,991.65
2018-06-19T09:45:55.004Z,991.61
2018-06-19T09:46:55.008Z,991.64
2018-06-19T09:47:54.935Z,991.66
2018-06-19T09:48:54.903Z,991.66
2018-06-19T09:49:54.870Z,991.65
2018-06-19T09:50:54.848Z,991.66
2018-06-19T09:51:54.812Z,991.65
2018-06-19T09:52:54.782Z,991.65
2018-06-19T09:53:54.784Z,991.64
2018-06-19T09:54:54.718Z,991.61
2018-06-19T09:55:54.688Z,991.65
2018-06-19T09:56:54.656Z,991.58
2018-06-19T09:57:54.625Z,991.57
2018-06-19T09:58:54.637Z,991.60
2018-06-19T09:59:54.566Z,991.59
2018-06-19T10:00:54.530Z,991.60
2018-06-19T10:01:54.503Z,991.61
2018-06-19T10:02:54.470Z,991.62
2018-06-19T10:03:54.436Z,991.64
2018-06-19T10:04:54.406Z,991.61
2018-06-19T10:05:54.389Z,991.63
2018-06-19T10:06:54.341Z,991.60
2018-06-19T10:07:54.311Z,991.61
2018-06-19T10:21:54.232Z,991.63
2018-06-19T10:22:54.169Z,991.63
2018-06-19T10:23:54.141Z,991.62
2018-06-19T10:24:54.101Z,991.62
2018-06-19T10:25:54.062Z,991.59
2018-06-19T10:26:54.033Z,991.61
2018-06-19T10:27:54.003Z,991.57
2018-06-19T10:28:53.967Z,991.55
2018-06-19T10:29:53.935Z,991.58
2018-06-19T10:30:53.899Z,991.54
2018-06-19T10:31:53.864Z,991.53
2018-06-19T10:32:53.838Z,991.54
2018-06-19T10:33:53.804Z,991.57
2018-06-19T10:34:53.796Z,991.62
2018-06-19T10:35:53.742Z,991.62
2018-06-19T10:36:53.707Z,991.62
2018-06-19T10:37:53.674Z,991.68
2018-06-19T10:38:53.641Z,991.66
2018-06-19T10:39:53.609Z,991.69
2018-06-19T10:40:53.584Z,991.70
2018-06-19T10:41:53.556Z,991.71
2018-06-19T10:42:53.523Z,991.74
2018-06-19T10:43:53.492Z,991.74
2018-06-19T10:44:53.451Z,991.77
2018-06-19T10:45:53.426Z,991.73
2018-06-19T10:46:53.394Z,991.72
2018-06-19T10:47:53.367Z,991.72
2018-06-19T10:48:53.326Z,991.72
2018-06-19T10:49:53.299Z,991.71
2018-06-19T10:50:53.274Z,991.73
2018-06-19T10:51:53.234Z,991.76
2018-06-19T10:52:53.221Z,991.75
2018-06-19T10:53:53.182Z,991.75
2018-06-19T10:54:53.144Z,991.73
2018-06-19T10:55:53.122Z,991.75
2018-06-19T10:56:53.079Z,991.73
2018-06-19T10:57:53.054Z,991.77
2018-06-19T10:58:53.040Z,991.72
2018-06-19T10:59:52.985Z,991.75
2018-06-19T11:00:52.965Z,991.76
2018-06-19T11:01:52.942Z,991.80
2018-06-19T11:02:52.892Z,991.76
2018-06-19T11:03:52.859Z,991.78
2018-06-19T11:04:52.844Z,991.81
2018-06-19T11:05:52.800Z,991.81
2018-06-19T11:06:52.769Z,991.80
2018-06-19T11:07:52.743Z,991.77
2018-06-19T11:08:52.707Z,991.80
2018-06-19T11:09:52.704Z,991.80
2018-06-19T11:10:52.642Z,991.78
2018-06-19T11:11:52.614Z,991.81
2018-06-19T11:12:52.589Z,991.79
2018-06-19T11:13:52.554Z,991.78
2018-06-19T11:14:52.537Z,991.73
2018-06-19T11:15:52.500Z,991.78
2018-06-19T11:16:52.459Z,991.80
2018-06-19T11:17:52.433Z,991.79
2018-06-19T11:18:52.397Z,991.79
2018-06-19T11:19:52.375Z,991.81
2018-06-19T11:20:52.334Z,991.80
2018-06-19T11:21:52.302Z,991.77
2018-06-19T11:22:52.320Z,991.75
2018-06-19T11:23:52.281Z,991.78
2018-06-19T11:24:52.218Z,991.77
2018-06-19T11:25:52.180Z,991.82
2018-06-19T11:26:52.153Z,991.79
2018-06-19T11:27:52.121Z,991.77
2018-06-19T11:28:52.091Z,991.75
2018-06-19T11:29:52.062Z,991.78
2018-06-19T11:30:52.024Z,991.75
2018-06-19T11:31:51.993Z,991.80
2018-06-19T11:32:51.996Z,991.78
2018-06-19T11:33:51.935Z,991.83
2018-06-19T11:34:51.901Z,991.86
2018-06-19T11:35:51.865Z,991.85
2018-06-19T11:36:51.844Z,991.86
2018-06-19T11:37:51.809Z,991.84
2018-06-19T11:38:51.778Z,991.78
2018-06-19T11:39:51.751Z,991.80
2018-06-19T11:40:51.710Z,991.77
2018-06-19T11:41:51.688Z,991.73
2018-06-19T11:42:51.655Z,991.70
2018-06-19T11:43:51.620Z,991.69
2018-06-19T11:44:51.598Z,991.72
2018-06-19T11:45:51.566Z,991.71
2018-06-19T11:46:51.532Z,991.73
2018-06-19T11:47:51.501Z,991.75
2018-06-19T11:48:51.477Z,991.76
2018-06-19T11:49:51.438Z,991.73
2018-06-19T11:50:51.415Z,991.74
2018-06-19T11:51:51.396Z,991.71
2018-06-19T11:52:51.341Z,991.70
2018-06-19T11:53:51.335Z,991.69
2018-06-19T11:54:51.291Z,991.71
2018-06-19T11:55:51.252Z,991.72
2018-06-19T11:56:51.247Z,991.73
2018-06-19T11:57:51.202Z,991.74
2018-06-19T11:58:51.164Z,991.75
2018-06-19T11:59:51.146Z,991.74
2018-06-19T12:00:51.110Z,991.76
2018-06-19T12:01:51.156Z,991.80
2018-06-19T12:02:51.036Z,991.77
2018-06-19T12:03:51.003Z,991.75
2018-06-19T12:04:50.985Z,991.75
2018-06-19T12:05:50.953Z,991.79
2018-06-19T12:06:50.921Z,991.77
2018-06-19T12:07:50.882Z,991.74
2018-06-19T12:08:50.861Z,991.77
2018-06-19T12:09:50.826Z,991.80
2018-06-19T12:10:50.793Z,991.84
2018-06-19T12:11:50.765Z,991.84
2018-06-19T12:12:50.728Z,991.80
2018-06-19T12:13:50.705Z,991.70
2018-06-19T12:14:50.691Z,991.72
2018-06-19T12:15:50.635Z,991.71
2018-06-19T12:16:50.611Z,991.66
2018-06-19T12:17:50.581Z,991.70
2018-06-19T12:18:50.548Z,991.71
2018-06-19T12:19:50.523Z,991.69
2018-06-19T12:20:50.482Z,991.71
2018-06-19T12:21:50.453Z,991.71
2018-06-19T12:22:50.426Z,991.77
2018-06-19T12:23:50.409Z,991.74
2018-06-19T12:24:50.358Z,991.75
2018-06-19T12:25:50.337Z,991.78
2018-06-19T12:26:50.301Z,991.80
2018-06-19T12:27:50.268Z,991.82
2018-06-19T12:28:50.249Z,991.81
2018-06-19T12:29:50.239Z,991.76
2018-06-19T12:30:50.179Z,991.77
2018-06-19T12:31:50.157Z,991.80
2018-06-19T12:32:50.114Z,991.77
2018-06-19T12:33:50.087Z,991.74
2018-06-19T12:34:50.069Z,991.78
2018-06-19T12:35:50.025Z,991.76
2018-06-19T12:36:50.002Z,991.72
2018-06-19T12:37:49.967Z,991.76
2018-06-19T12:38:49.952Z,991.74
2018-06-19T12:39:49.904Z,991.77
2018-06-19T12:40:49.880Z,991.82
2018-06-19T12:41:49.844Z,991.86
2018-06-19T12:42:49.824Z,991.82
2018-06-19T12:43:49.788Z,991.83
2018-06-19T12:44:49.823Z,991.82
2018-06-19T12:45:49.723Z,991.84
2018-06-19T12:46:49.743Z,991.85
2018-06-19T12:47:49.666Z,991.87
2018-06-19T12:48:49.633Z,991.85
2018-06-19T12:49:49.620Z,991.88
2018-06-19T12:50:49.571Z,991.89
2018-06-19T12:51:49.547Z,991.89
2018-06-19T12:52:49.507Z,991.89
2018-06-19T12:53:49.481Z,991.90
2018-06-19T12:54:49.453Z,991.94
2018-06-19T12:55:49.420Z,991.86